This is the latest recevied weather packets stored in our database for station/object SP6YY-15. If no packets are shown the sender has not sent any weather packets the latest 10 day(s).
| Time | Temp. | Humidity | Pressure | Rain* | Wind** | Luminosity | Snow |
|---|---|---|---|---|---|---|---|
| 1787727020 | 27.78° C | 28% | 1007.5 hPa | - | - | - | - |
| 1787726720 | 27.78° C | 28% | 1007.4 hPa | - | - | - | - |
| 1787726420 | 28.33° C | 28% | 1007.4 hPa | - | - | - | - |
| 1787726120 | 28.89° C | 27% | 1007.5 hPa | - | - | - | - |
| 1787725820 | 29.44° C | 26% | 1007.4 hPa | - | - | - | - |
| 1787725519 | 30.56° C | 25% | 1007.4 hPa | - | - | - | - |
| 1787725219 | 29.44° C | 25% | 1007.3 hPa | - | - | - | - |
| 1787724919 | 31.11° C | 24% | 1007.2 hPa | - | - | - | - |
| 1787724619 | 33.89° C | 22% | 1007.3 hPa | - | - | - | - |
| 1787724319 | 33.89° C | 22% | 1007.7 hPa | - | - | - | - |
| 1787724018 | 33.33° C | 24% | 1008.2 hPa | - | - | - | - |
| 1787723718 | 32.22° C | 26% | 1008.3 hPa | - | - | - | - |
| 1787723418 | 30° C | 29% | 1008.1 hPa | - | - | - | - |
| 1787723118 | 26.67° C | 32% | 1007.8 hPa | - | - | - | - |
| 1787722818 | 22.22° C | 37% | 1007.9 hPa | - | - | - | - |
| 1787677158 | 37.78° C | 19% | 1005.6 hPa | - | - | - | - |
| 1787676558 | 36.11° C | 21% | 1003.7 hPa | - | - | - | - |
| 1787676256 | 33.89° C | 23% | 1004.3 hPa | - | - | - | - |
| 1787675656 | 31.11° C | 26% | 1004.1 hPa | - | - | - | - |
| 1787675355 | 32.22° C | 25% | 1004 hPa | - | - | - | - |
| 1787675055 | 33.89° C | 23% | 1004.2 hPa | - | - | - | - |
| 1787674455 | 31.67° C | 25% | 1005.2 hPa | - | - | - | - |
| 1787674155 | 30.56° C | 26% | 1005 hPa | - | - | - | - |
| 1787673855 | 30.56° C | 26% | 1004.9 hPa | - | - | - | - |
| 1787673555 | 30.56° C | 25% | 1004.9 hPa | - | - | - | - |
* Rain since midnight (hover to see other rain measurements)
** Current wind speed in m/s (hover to see current wind gust speed)